createdAt,value
2018-10-19T00:00:31.080Z,8.50
2018-10-19T00:06:00.368Z,8.50
2018-10-19T00:11:29.689Z,8.40
2018-10-19T00:17:01.079Z,8.40
2018-10-19T00:22:30.373Z,8.30
2018-10-19T00:27:59.686Z,8.20
2018-10-19T00:33:28.993Z,8.20
2018-10-19T00:38:58.396Z,8.10
2018-10-19T00:44:27.609Z,8.10
2018-10-19T00:49:58.205Z,8.00
2018-10-19T00:55:28.544Z,8.00
2018-10-19T01:00:57.784Z,7.90
2018-10-19T01:06:27.225Z,7.90
2018-10-19T01:11:56.600Z,7.80
2018-10-19T01:17:25.905Z,7.80
2018-10-19T01:22:56.350Z,7.70
2018-10-19T01:28:25.665Z,7.70
2018-10-19T01:33:55.041Z,7.60
2018-10-19T01:39:24.246Z,7.60
2018-10-19T01:44:54.540Z,7.60
2018-10-19T01:50:23.736Z,7.50
2018-10-19T01:55:53.141Z,7.50
2018-10-19T02:01:23.052Z,7.40
2018-10-19T02:06:52.344Z,7.40
2018-10-19T02:12:21.669Z,7.30
2018-10-19T02:17:52.112Z,7.30
2018-10-19T02:23:21.461Z,7.20
2018-10-19T02:28:50.911Z,7.20
2018-10-19T02:34:21.246Z,7.10
2018-10-19T02:39:50.620Z,7.10
2018-10-19T02:45:22.020Z,7.10
2018-10-19T02:50:51.280Z,7.00
2018-10-19T02:56:21.655Z,6.90
2018-10-19T03:01:50.920Z,6.90
2018-10-19T03:07:22.269Z,6.90
2018-10-19T03:12:51.888Z,6.80
2018-10-19T03:18:21.454Z,6.80
2018-10-19T03:23:50.817Z,6.80
2018-10-19T03:29:20.326Z,6.80
2018-10-19T03:34:49.683Z,6.80
2018-10-19T03:40:19.233Z,6.80
2018-10-19T03:45:48.632Z,6.70
2018-10-19T03:51:19.199Z,6.70
2018-10-19T03:56:48.446Z,6.70
2018-10-19T04:02:18.532Z,6.60
2018-10-19T04:07:48.767Z,6.60
2018-10-19T04:13:18.068Z,6.60
2018-10-19T04:18:48.533Z,6.50
2018-10-19T04:24:17.920Z,6.50
2018-10-19T04:29:47.356Z,6.50
2018-10-19T04:35:16.739Z,6.40
2018-10-19T04:40:46.656Z,6.40
2018-10-19T04:46:15.990Z,6.50
2018-10-19T04:51:47.233Z,6.40
2018-10-19T04:57:16.675Z,6.40
2018-10-19T05:02:46.115Z,6.30
2018-10-19T05:08:15.310Z,6.30
2018-10-19T05:13:45.578Z,6.30
2018-10-19T05:19:16.310Z,6.30
2018-10-19T05:24:45.819Z,6.40
2018-10-19T05:30:14.980Z,6.40
2018-10-19T05:35:44.227Z,6.50
2018-10-19T05:41:13.465Z,6.50
2018-10-19T05:46:42.689Z,6.60
2018-10-19T05:52:11.980Z,6.60
2018-10-19T05:57:41.139Z,6.60
2018-10-19T06:03:10.421Z,6.60
2018-10-19T06:08:39.769Z,6.60
2018-10-19T06:14:09.394Z,6.70
2018-10-19T06:19:38.780Z,6.70
2018-10-19T06:25:08.068Z,6.80
2018-10-19T06:30:37.338Z,6.80
2018-10-19T06:36:06.720Z,6.80
2018-10-19T06:41:36.051Z,6.80
2018-10-19T06:47:05.707Z,6.90
2018-10-19T06:52:35.012Z,6.90
2018-10-19T06:58:04.384Z,7.00
2018-10-19T07:03:33.732Z,7.10
2018-10-19T07:09:03.245Z,7.20
2018-10-19T07:14:32.580Z,7.20
2018-10-19T07:20:01.986Z,7.30
2018-10-19T07:25:31.288Z,7.40
2018-10-19T07:31:00.650Z,7.50
2018-10-19T07:36:30.004Z,7.60
2018-10-19T07:41:59.386Z,7.60
2018-10-19T07:47:28.799Z,7.70
2018-10-19T07:52:58.212Z,7.80
2018-10-19T07:58:27.534Z,7.90
2018-10-19T08:03:56.841Z,8.10
2018-10-19T08:09:26.293Z,8.20
2018-10-19T08:14:55.843Z,8.40
2018-10-19T08:20:27.236Z,8.60
2018-10-19T08:25:56.614Z,8.80
2018-10-19T08:31:25.963Z,9.10
2018-10-19T08:36:55.292Z,9.40
2018-10-19T08:42:24.533Z,9.40
2018-10-19T08:47:53.879Z,9.50
2018-10-19T08:53:23.366Z,9.60
2018-10-19T08:58:52.711Z,9.80
2018-10-19T09:04:22.092Z,10.00
2018-10-19T09:09:51.388Z,10.10
2018-10-19T09:15:20.803Z,10.30
2018-10-19T09:20:50.564Z,10.40
2018-10-19T09:26:19.917Z,10.30
2018-10-19T09:31:49.239Z,10.40
2018-10-19T09:37:18.603Z,10.40
2018-10-19T09:42:47.980Z,10.50
2018-10-19T09:48:23.193Z,10.70
2018-10-19T09:53:52.726Z,11.00
2018-10-19T09:59:22.046Z,11.20
2018-10-19T10:04:51.315Z,11.10
2018-10-19T10:10:20.636Z,11.30
2018-10-19T10:15:50.200Z,11.60
2018-10-19T10:21:19.572Z,11.80
2018-10-19T10:26:49.902Z,12.00
2018-10-19T10:32:19.403Z,12.10
2018-10-19T10:37:48.736Z,12.40
2018-10-19T10:43:18.039Z,12.80
2018-10-19T10:48:47.301Z,13.10
2018-10-19T10:54:16.642Z,13.60
2018-10-19T10:59:45.956Z,13.90
2018-10-19T11:05:15.409Z,14.10
2018-10-19T11:10:44.850Z,14.40
2018-10-19T11:16:14.577Z,14.70
2018-10-19T11:21:43.764Z,15.00
2018-10-19T11:27:13.092Z,15.20
2018-10-19T11:32:42.330Z,15.20
2018-10-19T11:38:11.557Z,15.40
2018-10-19T11:43:40.920Z,15.80
2018-10-19T11:49:10.219Z,16.00
2018-10-19T11:54:39.585Z,16.20
2018-10-19T12:00:09.525Z,16.30
2018-10-19T12:05:38.929Z,16.40
2018-10-19T12:11:08.358Z,16.60
2018-10-19T12:16:38.058Z,16.80
2018-10-19T12:22:07.590Z,17.00
2018-10-19T12:27:41.946Z,17.20
2018-10-19T12:33:12.915Z,17.30
2018-10-19T12:38:43.423Z,17.40
2018-10-19T12:44:13.862Z,17.60
2018-10-19T12:49:44.773Z,17.70
2018-10-19T12:55:14.316Z,17.70
2018-10-19T13:00:43.701Z,18.10
2018-10-19T13:06:13.349Z,18.70
2018-10-19T13:11:42.737Z,19.00
2018-10-19T13:17:12.336Z,18.90
2018-10-19T13:22:42.716Z,19.10
2018-10-19T13:28:12.824Z,19.50
2018-10-19T13:33:42.390Z,19.90
2018-10-19T13:39:13.152Z,20.50
2018-10-19T13:44:43.703Z,21.10
2018-10-19T13:50:13.023Z,22.00
2018-10-19T13:55:42.437Z,22.50
2018-10-19T14:01:11.862Z,22.80
2018-10-19T14:06:41.141Z,22.60
2018-10-19T14:12:10.454Z,22.60
2018-10-19T14:17:41.010Z,22.80
2018-10-19T14:23:10.412Z,23.20
2018-10-19T14:28:39.794Z,23.30
2018-10-19T14:34:09.112Z,23.50
2018-10-19T14:39:38.532Z,23.80
2018-10-19T14:45:09.076Z,23.70
2018-10-19T14:50:38.324Z,23.60
2018-10-19T14:56:07.615Z,23.60
2018-10-19T15:01:36.962Z,23.30
2018-10-19T15:07:09.277Z,22.20
2018-10-19T15:12:38.638Z,21.90
2018-10-19T15:18:08.418Z,21.30
2018-10-19T15:23:37.632Z,20.50
2018-10-19T15:29:09.004Z,19.80
2018-10-19T15:34:38.432Z,19.20
2018-10-19T15:40:09.760Z,18.70
2018-10-19T15:45:40.116Z,18.10
2018-10-19T15:51:10.700Z,17.60
2018-10-19T15:56:41.171Z,17.30
2018-10-19T16:02:10.400Z,16.90
2018-10-19T16:07:39.727Z,16.60
2018-10-19T16:13:09.017Z,16.30
2018-10-19T16:18:42.651Z,16.10
2018-10-19T16:24:12.214Z,15.80
2018-10-19T16:29:41.449Z,15.50
2018-10-19T16:35:10.734Z,15.30
2018-10-19T16:40:40.025Z,15.10
2018-10-19T16:46:09.330Z,14.90
2018-10-19T16:51:39.647Z,14.70
2018-10-19T16:57:09.103Z,14.50
2018-10-19T17:02:38.571Z,14.30
2018-10-19T17:08:08.013Z,14.10
2018-10-19T17:13:37.395Z,14.00
2018-10-19T17:19:06.982Z,13.80
2018-10-19T17:24:36.294Z,13.60
2018-10-19T17:30:08.193Z,13.50
2018-10-19T17:35:37.477Z,13.30
2018-10-19T17:41:06.954Z,13.20
2018-10-19T17:46:41.850Z,13.00
2018-10-19T17:52:12.471Z,12.80
2018-10-19T17:57:43.911Z,12.70
2018-10-19T18:03:13.524Z,12.70
2018-10-19T18:08:43.143Z,12.50
2018-10-19T18:14:15.488Z,12.40
2018-10-19T18:19:51.210Z,12.20
2018-10-19T18:25:25.983Z,12.10
2018-10-19T18:31:04.190Z,12.00
2018-10-19T18:36:36.146Z,11.90
2018-10-19T18:42:09.312Z,11.70
2018-10-19T18:47:47.129Z,11.60
2018-10-19T18:53:20.001Z,11.50
2018-10-19T18:58:52.124Z,11.30
2018-10-19T19:04:26.352Z,11.20
2018-10-19T19:10:02.315Z,11.10
2018-10-19T19:15:40.355Z,11.00
2018-10-19T19:21:14.421Z,10.80
2018-10-19T19:26:46.687Z,10.70
2018-10-19T19:32:18.477Z,10.60
2018-10-19T19:37:49.459Z,10.50
2018-10-19T19:43:19.855Z,10.40
2018-10-19T19:48:55.002Z,10.40
2018-10-19T19:54:24.645Z,10.30
2018-10-19T19:59:59.672Z,10.20
2018-10-19T20:05:29.686Z,10.10
2018-10-19T20:10:59.383Z,10.10
2018-10-19T20:16:28.945Z,10.00
2018-10-19T20:21:59.306Z,9.90
2018-10-19T20:27:28.882Z,9.80
2018-10-19T20:32:58.236Z,9.80
2018-10-19T20:38:30.393Z,9.70
2018-10-19T20:44:02.141Z,9.60
2018-10-19T20:49:31.494Z,9.60
2018-10-19T20:55:01.307Z,9.40
2018-10-19T21:00:30.990Z,9.40
2018-10-19T21:06:00.353Z,9.40
2018-10-19T21:11:31.020Z,9.20
2018-10-19T21:17:01.498Z,9.20
2018-10-19T21:22:31.642Z,9.20
2018-10-19T21:28:01.324Z,9.10
2018-10-19T21:33:31.077Z,9.00
2018-10-19T21:39:01.792Z,9.00
2018-10-19T21:44:31.830Z,8.90
2018-10-19T21:50:03.379Z,8.90
2018-10-19T21:55:34.364Z,8.80
2018-10-19T22:01:04.488Z,8.70
2018-10-19T22:06:34.191Z,8.70
2018-10-19T22:12:04.931Z,8.60
2018-10-19T22:17:34.735Z,8.60
2018-10-19T22:23:06.196Z,8.60
2018-10-19T22:28:36.963Z,8.50
2018-10-19T22:34:07.557Z,8.40
2018-10-19T22:39:41.537Z,8.40
2018-10-19T22:45:11.614Z,8.30
2018-10-19T22:50:43.759Z,8.30
2018-10-19T22:56:13.609Z,8.30
2018-10-19T23:01:43.141Z,8.20
2018-10-19T23:07:13.579Z,8.20
2018-10-19T23:12:43.120Z,8.20
2018-10-19T23:18:14.942Z,8.10
2018-10-19T23:23:44.649Z,8.10
2018-10-19T23:29:15.299Z,8.00
2018-10-19T23:34:44.604Z,8.00
2018-10-19T23:40:15.096Z,7.90
2018-10-19T23:45:44.577Z,7.80
2018-10-19T23:51:14.005Z,7.80
2018-10-19T23:56:43.362Z,7.80
